Time;durP1;ratioP1;P1;durP2;ratioP2;P2;SDS_P1;SDS_P2;PMS_P1;PMS_P2;Temp;Humidity;BMP_temperature;BMP_pressure;BME280_temperature;BME280_humidity;BME280_pressure;Samples;Min_cycle;Max_cycle;Signal;HPM_P1;HPM_P2
2023/07/29 00:00:17;;;;;;;3.62;2.05;;;;;;;16.34;71.28;99925.34;1622805;87;21369;-56
2023/07/29 00:03:23;;;;;;;5.85;3.00;;;;;;;16.31;71.29;99926.31;1622773;87;21246;-56
2023/07/29 00:06:31;;;;;;;4.17;2.30;;;;;;;16.28;71.31;99935.88;1622746;87;21385;-56
2023/07/29 00:09:37;;;;;;;5.70;2.70;;;;;;;16.25;71.29;99934.95;1637520;84;21382;-56
2023/07/29 00:12:43;;;;;;;7.45;2.75;;;;;;;16.21;71.32;99928.19;1652803;86;21879;-56
2023/07/29 00:15:50;;;;;;;5.60;2.27;;;;;;;16.18;71.33;99925.87;1652616;86;21366;-56
2023/07/29 00:18:58;;;;;;;3.67;2.10;;;;;;;16.14;71.33;99923.79;1652755;86;21358;-56
2023/07/29 00:22:03;;;;;;;6.75;2.10;;;;;;;16.11;71.36;99929.20;1652577;87;21393;-55
2023/07/29 00:25:09;;;;;;;8.65;2.60;;;;;;;16.07;71.35;99932.64;1664364;86;21985;-55
2023/07/29 00:28:14;;;;;;;4.25;2.42;;;;;;;16.03;71.32;99940.52;1652606;86;21228;-56
2023/07/29 00:31:21;;;;;;;7.45;2.45;;;;;;;15.98;71.21;99940.33;1652579;87;21402;-55
2023/07/29 00:34:28;;;;;;;3.42;2.45;;;;;;;15.94;71.27;99941.85;1652563;87;21418;-55
2023/07/29 00:37:37;;;;;;;4.83;2.60;;;;;;;15.90;71.31;99935.06;1652590;86;21405;-55
2023/07/29 00:40:45;;;;;;;6.25;2.67;;;;;;;15.87;71.33;99930.54;1652582;86;21385;-54
2023/07/29 00:43:53;;;;;;;6.08;2.83;;;;;;;15.83;71.35;99930.13;1652607;87;21359;-55
2023/07/29 00:47:00;;;;;;;4.20;2.20;;;;;;;15.80;71.42;99923.67;1652670;86;21394;-54
2023/07/29 00:50:07;;;;;;;7.80;2.80;;;;;;;15.78;71.50;99927.17;1652625;86;21355;-55
2023/07/29 00:53:13;;;;;;;6.92;2.30;;;;;;;15.76;71.54;99922.41;1652625;87;21386;-55
2023/07/29 00:56:20;;;;;;;9.08;2.10;;;;;;;15.76;71.62;99926.55;1652748;86;21379;-55
2023/07/29 00:59:28;;;;;;;4.22;2.33;;;;;;;15.75;71.67;99927.63;1652625;86;21404;-55
2023/07/29 01:02:34;;;;;;;3.98;2.50;;;;;;;15.73;71.72;99932.51;1652528;87;21396;-55
2023/07/29 01:05:52;;;;;;;4.50;2.47;;;;;;;15.73;71.77;99924.23;1652602;86;21429;-56
2023/07/29 01:09:19;;;;;;;3.65;2.42;;;;;;;15.72;71.80;99934.11;1652589;87;21875;-55
2023/07/29 01:12:45;;;;;;;4.87;2.27;;;;;;;15.72;71.85;99932.73;1628637;88;21262;-56
2023/07/29 01:16:09;;;;;;;6.17;2.40;;;;;;;15.71;71.89;99927.77;1628607;88;21255;-55
2023/07/29 01:19:14;;;;;;;4.97;2.60;;;;;;;15.69;71.93;99940.92;1628763;88;21234;-56
2023/07/29 01:22:21;;;;;;;5.40;2.85;;;;;;;15.67;71.94;99943.05;1628639;88;22646;-56
2023/07/29 01:25:27;;;;;;;10.25;2.85;;;;;;;15.66;71.96;99948.27;1628800;88;21235;-57
2023/07/29 01:28:33;;;;;;;6.08;3.20;;;;;;;15.63;72.00;99951.47;1631273;86;21214;-57
2023/07/29 01:31:49;;;;;;;5.92;2.95;;;;;;;15.60;71.92;99951.88;1628354;88;21301;-56
2023/07/29 01:35:32;;;;;;;3.75;2.47;;;;;;;15.57;71.79;99948.73;1628644;88;21336;-55
2023/07/29 01:38:43;;;;;;;8.08;2.95;;;;;;;15.48;71.51;99955.02;1628498;88;21231;-56
2023/07/29 01:41:52;;;;;;;6.37;2.58;;;;;;;15.35;71.24;99948.13;1628519;87;21238;-55
2023/07/29 01:44:59;;;;;;;6.87;2.52;;;;;;;15.27;71.23;99954.42;1628574;87;21274;-56
2023/07/29 01:48:04;;;;;;;4.50;2.52;;;;;;;15.18;71.19;99952.42;1631376;88;21416;-55
2023/07/29 01:51:12;;;;;;;4.10;2.58;;;;;;;15.10;71.17;99958.69;1606017;88;21420;-55
2023/07/29 01:54:19;;;;;;;4.12;2.83;;;;;;;15.02;71.19;99962.52;1631350;88;21369;-56
2023/07/29 01:57:24;;;;;;;6.15;2.62;;;;;;;14.98;71.31;99966.78;1628528;88;21352;-55
2023/07/29 02:00:29;;;;;;;5.42;2.75;;;;;;;14.93;71.47;99967.44;1628777;88;21798;-55
2023/07/29 02:03:37;;;;;;;4.50;2.98;;;;;;;14.93;71.64;99971.56;1628645;88;21247;-55
2023/07/29 02:06:43;;;;;;;3.77;2.90;;;;;;;14.90;71.75;99965.08;1628723;88;21222;-55
2023/07/29 02:09:49;;;;;;;6.50;2.65;;;;;;;14.87;71.73;99961.38;1631336;88;21897;-56
2023/07/29 02:12:55;;;;;;;10.82;3.00;;;;;;;14.84;71.74;99962.36;1653549;84;21833;-56
2023/07/29 02:16:01;;;;;;;7.08;2.70;;;;;;;14.80;71.68;99966.58;1659264;86;21378;-55
2023/07/29 02:19:08;;;;;;;4.80;3.12;;;;;;;14.76;71.64;99970.84;1659253;86;22010;-55
2023/07/29 02:22:14;;;;;;;5.17;3.08;;;;;;;14.75;71.73;99974.63;1664174;85;21706;-55
2023/07/29 02:25:19;;;;;;;6.40;3.30;;;;;;;14.76;71.88;99973.59;1659061;86;21362;-56
2023/07/29 02:28:27;;;;;;;4.15;2.77;;;;;;;14.76;72.05;99977.17;1659220;86;21220;-56
2023/07/29 02:31:34;;;;;;;3.85;2.77;;;;;;;14.77;72.11;99970.63;1659309;86;21977;-55
2023/07/29 02:34:41;;;;;;;3.00;2.40;;;;;;;14.79;72.21;99980.05;1659085;86;21385;-56
2023/07/29 02:37:47;;;;;;;5.17;2.30;;;;;;;14.81;72.24;99976.53;1659668;86;21405;-56
2023/07/29 02:40:54;;;;;;;5.37;2.75;;;;;;;14.83;72.32;99982.69;1659225;85;21437;-57
2023/07/29 02:44:00;;;;;;;5.10;2.85;;;;;;;14.84;72.47;99985.78;1659630;86;21713;-58
2023/07/29 02:47:05;;;;;;;7.30;3.55;;;;;;;14.87;72.62;99983.97;1659329;86;21378;-56
2023/07/29 02:50:13;;;;;;;4.83;3.15;;;;;;;14.89;72.66;99975.80;1659267;86;21894;-57
2023/07/29 02:53:19;;;;;;;7.97;3.10;;;;;;;14.91;72.68;99982.47;1639295;86;21417;-57
2023/07/29 02:56:26;;;;;;;5.08;3.17;;;;;;;14.92;72.71;99982.81;1659650;85;21448;-57
2023/07/29 02:59:32;;;;;;;8.40;3.17;;;;;;;14.95;72.72;99994.78;1659256;86;21369;-57
2023/07/29 03:02:38;;;;;;;5.30;2.75;;;;;;;14.95;72.73;99994.23;1664128;86;21405;-57
2023/07/29 03:05:46;;;;;;;10.70;3.70;;;;;;;14.98;72.79;99991.59;1659310;86;21445;-57
2023/07/29 03:08:51;;;;;;;7.15;3.52;;;;;;;15.01;72.92;99989.23;1664184;86;21878;-55
2023/07/29 03:11:58;;;;;;;6.45;3.10;;;;;;;15.04;73.04;99987.98;1659106;86;21379;-56
2023/07/29 03:15:04;;;;;;;8.00;3.40;;;;;;;15.09;73.17;99988.19;1628618;88;21238;-56
2023/07/29 03:18:11;;;;;;;5.50;3.15;;;;;;;15.14;73.24;99988.39;1628467;88;21234;-56
2023/07/29 03:21:18;;;;;;;10.35;6.03;;;;;;;15.19;73.29;99989.95;1628000;88;21268;-56
2023/07/29 03:24:26;;;;;;;18.60;12.15;;;;;;;15.24;73.35;99981.88;1631356;88;21254;-56
2023/07/29 03:27:32;;;;;;;26.62;16.57;;;;;;;15.28;73.41;99981.79;1628653;87;21302;-55
2023/07/29 03:30:37;;;;;;;30.37;19.23;;;;;;;15.32;73.45;99979.45;1631268;88;21277;-56
2023/07/29 03:33:44;;;;;;;23.55;13.58;;;;;;;15.37;73.52;99981.00;1628935;87;21230;-56
2023/07/29 03:36:51;;;;;;;17.02;9.80;;;;;;;15.41;73.56;99984.55;1631331;87;21257;-56
2023/07/29 03:39:58;;;;;;;12.30;7.03;;;;;;;15.45;73.60;99983.03;1628853;88;21282;-56
2023/07/29 03:43:05;;;;;;;9.63;4.90;;;;;;;15.51;73.64;99993.72;1628082;88;21798;-57
2023/07/29 03:46:10;;;;;;;6.30;3.58;;;;;;;15.57;73.71;100000.59;1627975;88;21301;-55
2023/07/29 03:49:16;;;;;;;7.37;3.80;;;;;;;15.63;73.75;100005.27;1628074;87;21306;-55
2023/07/29 03:52:24;;;;;;;5.25;3.40;;;;;;;15.68;73.72;99993.02;1628345;88;21293;-55
2023/07/29 03:55:30;;;;;;;9.78;4.67;;;;;;;15.72;73.70;99988.78;1631823;86;21337;-56
2023/07/29 03:58:36;;;;;;;10.08;5.10;;;;;;;15.79;73.76;99984.62;1628593;88;21310;-56
2023/07/29 04:01:43;;;;;;;6.50;3.75;;;;;;;15.86;73.83;99997.31;1628678;88;21241;-56
2023/07/29 04:04:49;;;;;;;11.15;3.67;;;;;;;15.94;73.91;99995.69;1628735;87;21214;-57
2023/07/29 04:07:55;;;;;;;6.35;3.80;;;;;;;16.04;73.95;99996.59;1628830;87;21281;-56
2023/07/29 04:11:02;;;;;;;8.88;4.25;;;;;;;16.11;73.98;99996.04;1628647;88;21229;-56
2023/07/29 04:14:08;;;;;;;6.97;3.92;;;;;;;16.19;74.04;100003.52;1634417;86;21262;-57
2023/07/29 04:17:36;;;;;;;6.55;3.67;;;;;;;16.27;74.11;99996.34;1658778;86;21282;-56
2023/07/29 04:20:41;;;;;;;6.03;4.20;;;;;;;16.38;74.20;99997.55;1683571;85;21388;-55
2023/07/29 04:23:49;;;;;;;6.08;4.65;;;;;;;16.49;74.25;99997.42;1658427;86;21219;-55
2023/07/29 04:26:54;;;;;;;8.35;4.90;;;;;;;16.60;74.28;99996.70;1656140;86;21397;-56
2023/07/29 04:29:59;;;;;;;7.15;4.75;;;;;;;16.71;74.30;99998.73;1656223;86;21378;-56
2023/07/29 04:33:05;;;;;;;6.75;4.17;;;;;;;16.81;74.34;99997.71;1659136;86;21273;-56
2023/07/29 04:36:12;;;;;;;13.62;5.37;;;;;;;16.92;74.38;99999.19;1656025;86;21279;-57
2023/07/29 04:39:18;;;;;;;8.95;4.70;;;;;;;17.03;74.40;99997.06;1655761;86;21200;-57
2023/07/29 04:42:23;;;;;;;5.90;4.08;;;;;;;17.14;74.45;99998.25;1653311;86;21927;-54
2023/07/29 04:45:29;;;;;;;6.35;4.12;;;;;;;17.25;74.45;99998.33;1654215;86;21239;-54
2023/07/29 04:48:36;;;;;;;5.87;3.58;;;;;;;17.35;74.44;99994.52;1654405;86;21256;-55
2023/07/29 04:51:42;;;;;;;6.80;3.50;;;;;;;17.46;74.46;99999.32;1654790;86;21409;-56
2023/07/29 04:54:49;;;;;;;5.67;2.92;;;;;;;17.60;74.48;100010.55;1654981;86;21754;-56
2023/07/29 04:57:56;;;;;;;5.92;3.22;;;;;;;17.70;74.50;100006.72;1637217;86;21331;-56
2023/07/29 05:01:03;;;;;;;3.87;2.70;;;;;;;17.84;74.49;100005.48;1654852;86;21970;-55
2023/07/29 05:04:08;;;;;;;9.15;3.33;;;;;;;17.96;74.46;100001.92;1654814;86;21325;-55
2023/07/29 05:07:15;;;;;;;3.40;2.87;;;;;;;18.06;74.42;100002.23;1654969;86;21973;-56
2023/07/29 05:10:22;;;;;;;5.95;3.15;;;;;;;18.18;74.40;100008.12;1654857;86;21252;-57
2023/07/29 05:13:28;;;;;;;4.65;3.20;;;;;;;18.26;74.39;100007.80;1655248;86;21374;-56
2023/07/29 05:16:34;;;;;;;5.53;2.62;;;;;;;18.38;74.38;100003.17;1655454;86;21389;-56
2023/07/29 05:19:42;;;;;;;4.85;2.85;;;;;;;18.50;74.38;100005.47;1653375;85;21361;-56
2023/07/29 05:22:49;;;;;;;10.03;3.72;;;;;;;18.64;74.36;100008.87;1664698;86;21397;-55
2023/07/29 05:25:56;;;;;;;4.90;2.50;;;;;;;18.75;74.36;100008.05;1654889;86;21243;-56
2023/07/29 05:29:01;;;;;;;4.55;2.45;;;;;;;18.91;74.33;100010.14;1654882;86;21432;-56
2023/07/29 05:32:07;;;;;;;3.22;2.25;;;;;;;19.06;74.28;100011.89;1654831;86;21958;-56
2023/07/29 05:35:13;;;;;;;4.65;2.50;;;;;;;19.23;74.27;100016.48;1664123;86;21456;-56
2023/07/29 05:38:20;;;;;;;4.50;2.60;;;;;;;19.46;74.26;100014.83;1654823;86;21384;-56
2023/07/29 05:41:27;;;;;;;3.80;2.40;;;;;;;19.69;74.17;100014.30;1664649;86;21404;-56
2023/07/29 05:44:35;;;;;;;5.25;2.50;;;;;;;19.94;73.99;100008.42;1655065;86;21288;-58
2023/07/29 05:47:44;;;;;;;7.05;1.90;;;;;;;20.16;73.78;100015.04;1655138;86;21417;-57
2023/07/29 05:50:50;;;;;;;4.58;2.05;;;;;;;20.35;73.58;100029.05;1655240;86;21421;-55
2023/07/29 05:53:58;;;;;;;3.65;2.08;;;;;;;20.51;73.45;100021.31;1655032;86;21389;-56
2023/07/29 05:57:05;;;;;;;5.28;2.17;;;;;;;20.67;73.30;100024.14;1655373;86;21386;-56
2023/07/29 06:00:13;;;;;;;3.30;2.30;;;;;;;20.79;73.10;100024.91;1655498;86;21390;-57
2023/07/29 06:03:12;;;;;;;3.20;2.12;;;;;;;20.92;72.89;100026.52;1655823;86;21925;-57
2023/07/29 06:06:18;;;;;;;4.08;2.55;;;;;;;21.06;72.76;100025.70;1655372;86;21886;-57
2023/07/29 06:09:25;;;;;;;5.53;2.30;;;;;;;21.20;72.63;100032.62;1664831;86;21808;-58
2023/07/29 06:12:32;;;;;;;3.77;2.20;;;;;;;21.36;72.50;100033.16;1655386;86;21922;-56
2023/07/29 06:15:38;;;;;;;4.83;2.40;;;;;;;21.49;72.25;100035.03;1655059;86;21466;-56
2023/07/29 06:18:46;;;;;;;6.62;2.37;;;;;;;21.64;72.02;100031.64;1655477;86;21366;-57
2023/07/29 06:21:53;;;;;;;3.00;2.52;;;;;;;21.76;71.76;100037.43;1655447;84;21863;-58
2023/07/29 06:24:58;;;;;;;4.70;2.45;;;;;;;21.83;71.45;100029.74;1655416;86;21387;-55
2023/07/29 06:28:05;;;;;;;5.92;2.62;;;;;;;21.90;71.29;100037.34;1655754;86;21437;-55
2023/07/29 06:31:04;;;;;;;5.15;2.45;;;;;;;22.06;71.23;100028.62;1644490;85;21225;-56
2023/07/29 06:33:57;;;;;;;5.50;3.00;;;;;;;22.29;71.12;100024.74;1648311;85;21594;-56
2023/07/29 06:36:44;;;;;;;5.67;3.00;;;;;;;22.45;70.91;100023.28;1656582;85;21473;-56
2023/07/29 06:39:37;;;;;;;5.75;2.67;;;;;;;22.59;70.78;100025.12;1612476;88;21268;-57
2023/07/29 06:42:43;;;;;;;5.30;2.67;;;;;;;22.70;70.45;100025.52;1596818;90;21235;-56
2023/07/29 06:45:49;;;;;;;3.58;2.52;;;;;;;22.80;70.23;100025.63;1614011;87;21304;-57
2023/07/29 06:48:55;;;;;;;6.47;2.77;;;;;;;22.90;70.09;100021.52;1605005;88;21248;-58
2023/07/29 06:52:01;;;;;;;4.35;2.25;;;;;;;23.01;69.87;100027.49;1626810;86;21355;-55
2023/07/29 06:55:07;;;;;;;5.80;2.45;;;;;;;23.09;69.52;100020.03;1576137;91;21364;-57
2023/07/29 06:58:12;;;;;;;7.97;3.58;;;;;;;23.17;69.27;100016.74;1595805;90;21262;-56
2023/07/29 07:01:16;;;;;;;4.78;3.00;;;;;;;23.23;69.04;100022.11;1576029;91;21294;-56
2023/07/29 07:04:23;;;;;;;3.22;2.40;;;;;;;23.31;68.90;100024.98;1596245;90;21759;-55
2023/07/29 07:07:30;;;;;;;7.05;2.90;;;;;;;23.33;68.60;100020.84;1576258;91;21279;-55
2023/07/29 07:10:39;;;;;;;4.87;2.52;;;;;;;23.31;68.36;100018.00;1582646;90;21238;-56
2023/07/29 07:13:44;;;;;;;3.83;2.17;;;;;;;23.25;68.19;100012.95;1576425;91;21259;-56
2023/07/29 07:16:51;;;;;;;3.17;2.33;;;;;;;23.29;68.12;100014.66;1595882;90;21247;-56
2023/07/29 07:19:56;;;;;;;6.45;2.70;;;;;;;23.37;68.03;100008.00;1603363;88;21768;-56
2023/07/29 07:23:02;;;;;;;3.87;2.47;;;;;;;23.39;67.94;100009.13;1621761;85;21409;-57
2023/07/29 07:26:11;;;;;;;4.80;3.02;;;;;;;23.42;67.80;100008.62;1601537;89;21454;-56
2023/07/29 07:29:17;;;;;;;3.17;1.72;;;;;;;23.40;67.55;100016.42;1632642;87;21908;-56
2023/07/29 07:32:22;;;;;;;2.55;1.70;;;;;;;23.36;67.23;100011.92;1627896;88;21415;-55
2023/07/29 07:35:28;;;;;;;3.80;1.80;;;;;;;23.38;67.03;100010.25;1627571;88;21288;-56
2023/07/29 07:38:34;;;;;;;2.42;1.67;;;;;;;23.46;66.97;100009.75;1645047;87;21220;-56
2023/07/29 07:41:41;;;;;;;3.00;2.02;;;;;;;23.57;66.84;100008.71;1624367;88;21310;-56
2023/07/29 07:44:48;;;;;;;2.98;1.90;;;;;;;23.74;66.65;100005.75;1648329;87;21377;-56
2023/07/29 07:47:56;;;;;;;4.47;2.00;;;;;;;23.89;66.43;100003.88;1627159;88;21288;-56
2023/07/29 07:51:02;;;;;;;3.17;2.00;;;;;;;24.04;66.11;99998.38;1648313;87;21390;-54
2023/07/29 07:54:09;;;;;;;5.50;2.92;;;;;;;24.18;65.84;99984.16;1627576;88;21772;-56
2023/07/29 07:57:16;;;;;;;4.78;2.65;;;;;;;24.33;65.58;99987.58;1648723;87;21400;-56
2023/07/29 08:00:22;;;;;;;3.87;2.60;;;;;;;24.51;65.37;99990.73;1627202;88;21776;-57
2023/07/29 08:03:27;;;;;;;4.00;2.17;;;;;;;24.69;65.14;99980.42;1648302;87;21389;-56
2023/07/29 08:06:33;;;;;;;2.95;1.85;;;;;;;24.82;64.70;99982.69;1627501;88;21323;-56
2023/07/29 08:09:39;;;;;;;4.03;1.80;;;;;;;24.99;64.54;99987.45;1648586;87;21514;-57
2023/07/29 08:12:46;;;;;;;4.78;2.20;;;;;;;25.18;64.21;99981.31;1626977;88;21236;-57
2023/07/29 08:15:56;;;;;;;2.60;1.90;;;;;;;25.38;63.92;99986.92;1648353;87;21234;-55
2023/07/29 08:19:04;;;;;;;3.40;2.45;;;;;;;25.50;63.47;99979.08;1627206;88;21240;-57
2023/07/29 08:22:12;;;;;;;3.85;2.70;;;;;;;25.63;63.22;99980.71;1633498;87;21472;-57
2023/07/29 08:25:18;;;;;;;4.42;2.00;;;;;;;25.72;62.89;99980.98;1620320;88;21850;-57
2023/07/29 08:28:25;;;;;;;3.52;1.90;;;;;;;25.75;62.34;99986.84;1660934;85;21343;-57
2023/07/29 08:31:33;;;;;;;4.30;2.47;;;;;;;25.76;61.82;99982.94;1662811;85;21434;-56
2023/07/29 08:34:41;;;;;;;4.28;2.05;;;;;;;25.68;61.48;99986.31;1642466;86;21880;-55
2023/07/29 08:37:47;;;;;;;4.72;2.77;;;;;;;25.69;61.23;99987.98;1646555;85;21178;-59
2023/07/29 08:41:11;;;;;;;5.78;3.22;;;;;;;25.73;61.03;99986.86;1614222;89;21209;-57
2023/07/29 08:44:29;;;;;;;6.95;2.83;;;;;;;25.69;60.72;99977.34;1657813;85;21605;-58
2023/07/29 08:47:43;;;;;;;4.53;2.08;;;;;;;25.62;60.39;99980.45;1647118;85;21269;-56
2023/07/29 08:50:51;;;;;;;4.97;2.30;;;;;;;25.62;60.01;99981.00;1614413;89;21200;-58
2023/07/29 08:53:56;;;;;;;6.62;2.90;;;;;;;25.68;60.01;99981.26;1649042;87;21802;-58
2023/07/29 08:57:01;;;;;;;2.85;1.90;;;;;;;25.72;59.75;99980.41;1615600;88;21200;-58
2023/07/29 09:00:07;;;;;;;4.72;2.70;;;;;;;25.81;59.52;99982.92;1649512;87;21851;-57
2023/07/29 09:03:15;;;;;;;7.78;5.00;;;;;;;25.87;58.99;99985.13;1615980;89;21200;-55
2023/07/29 09:06:22;;;;;;;5.35;3.22;;;;;;;25.94;58.73;99985.69;1648627;87;21225;-56
2023/07/29 09:09:29;;;;;;;7.42;2.83;;;;;;;25.93;58.40;99983.98;1615274;89;21209;-57
2023/07/29 09:12:33;;;;;;;5.70;2.83;;;;;;;25.88;58.07;99989.05;1634121;86;21280;-57
2023/07/29 09:15:42;;;;;;;4.58;2.77;;;;;;;25.85;57.84;99991.58;1615528;88;21733;-58
2023/07/29 09:18:48;;;;;;;5.33;2.55;;;;;;;25.87;57.67;99976.72;1649674;87;21212;-56
2023/07/29 09:21:55;;;;;;;5.60;2.70;;;;;;;25.92;57.52;99981.77;1615776;89;21236;-57
2023/07/29 09:25:01;;;;;;;5.45;2.83;;;;;;;25.97;57.28;99983.13;1635421;82;21263;-58
2023/07/29 09:28:08;;;;;;;4.55;3.05;;;;;;;26.09;57.08;99980.03;1614264;87;21296;-57
2023/07/29 09:31:14;;;;;;;5.35;2.87;;;;;;;26.14;56.82;99975.80;1603643;89;21288;-58
2023/07/29 09:34:20;;;;;;;4.08;2.65;;;;;;;26.17;56.51;99968.21;1613024;88;21741;-58
2023/07/29 09:37:31;;;;;;;4.62;2.80;;;;;;;26.21;56.37;99963.72;1588336;88;21239;-57
2023/07/29 09:40:45;;;;;;;3.75;2.52;;;;;;;26.20;56.01;99967.63;1617802;88;21247;-56
2023/07/29 09:43:52;;;;;;;5.35;2.80;;;;;;;26.15;55.81;99953.63;1618234;88;21397;-56
2023/07/29 09:47:00;;;;;;;4.25;2.72;;;;;;;26.27;55.85;99954.14;1617571;88;21293;-57
2023/07/29 09:50:05;;;;;;;4.17;2.35;;;;;;;26.45;55.85;99961.88;1604890;88;21247;-56
2023/07/29 09:53:11;;;;;;;5.30;3.10;;;;;;;26.59;55.63;99958.73;1608366;88;21299;-56
2023/07/29 09:56:17;;;;;;;4.60;2.70;;;;;;;26.74;55.39;99953.58;1604933;88;21358;-57
2023/07/29 09:59:25;;;;;;;8.18;2.77;;;;;;;26.74;54.96;99953.58;1617892;88;21290;-56
2023/07/29 10:02:31;;;;;;;3.90;2.30;;;;;;;26.72;54.73;99944.04;1605577;88;21246;-56
2023/07/29 10:05:38;;;;;;;4.12;2.50;;;;;;;26.82;54.71;99948.19;1595041;88;21232;-55
2023/07/29 10:08:43;;;;;;;6.62;2.42;;;;;;;26.89;54.58;99946.45;1590785;90;21283;-57
2023/07/29 10:11:50;;;;;;;9.58;2.55;;;;;;;26.96;54.39;99942.73;1590583;89;21768;-56
2023/07/29 10:14:56;;;;;;;4.28;2.70;;;;;;;27.04;54.29;99941.55;1590667;90;21227;-58
2023/07/29 10:18:01;;;;;;;4.70;2.55;;;;;;;27.17;54.14;99941.42;1590757;89;21296;-57
2023/07/29 10:21:09;;;;;;;5.00;2.85;;;;;;;27.22;53.94;99940.83;1610449;87;21266;-56
2023/07/29 10:24:20;;;;;;;4.12;2.67;;;;;;;27.30;53.90;99935.16;1617008;88;21759;-57
2023/07/29 10:27:26;;;;;;;4.75;2.35;;;;;;;27.39;53.86;99930.55;1658593;86;21326;-57
2023/07/29 10:30:33;;;;;;;4.17;2.87;;;;;;;27.36;53.48;99951.69;1658702;86;21322;-56
2023/07/29 10:33:38;;;;;;;4.00;2.50;;;;;;;27.25;53.17;99943.60;1640269;85;21222;-58
2023/07/29 10:36:45;;;;;;;5.80;2.77;;;;;;;27.13;53.04;99938.36;1658355;86;21413;-56
2023/07/29 10:40:04;;;;;;;4.90;2.83;;;;;;;27.06;52.84;99941.25;1664395;85;21759;-58
2023/07/29 10:43:18;;;;;;;4.53;2.30;;;;;;;26.90;52.66;99939.14;1683062;85;21381;-57
2023/07/29 10:46:28;;;;;;;5.78;2.70;;;;;;;26.66;52.50;99942.41;1686319;85;21409;-56
2023/07/29 10:49:34;;;;;;;3.90;2.83;;;;;;;26.61;52.56;99938.19;1686569;85;21393;-56
2023/07/29 10:52:47;;;;;;;7.08;2.65;;;;;;;26.65;52.68;99934.27;1682839;85;21388;-56
2023/07/29 10:55:53;;;;;;;4.78;3.27;;;;;;;26.70;52.66;99930.88;1685761;85;21381;-56
2023/07/29 10:58:58;;;;;;;4.10;2.83;;;;;;;26.72;52.56;99933.39;1631774;88;21254;-55
2023/07/29 11:02:07;;;;;;;4.97;3.12;;;;;;;26.74;52.45;99938.13;1631598;88;21254;-55
2023/07/29 11:05:15;;;;;;;6.42;3.75;;;;;;;26.76;52.32;99934.47;1632008;88;21246;-57
2023/07/29 11:08:38;;;;;;;4.55;2.80;;;;;;;26.90;52.39;99941.09;1631622;88;21278;-56
2023/07/29 11:11:46;;;;;;;4.62;3.17;;;;;;;27.02;52.25;99942.39;1632080;88;21898;-58
2023/07/29 11:14:52;;;;;;;5.28;3.15;;;;;;;27.05;51.97;99948.02;1599291;88;21738;-56
2023/07/29 11:18:04;;;;;;;6.20;3.10;;;;;;;26.96;51.61;99946.39;1631706;88;21626;-57
2023/07/29 11:21:09;;;;;;;;;;;;;;;26.83;51.41;99944.23;1633845;88;21756;-56
2023/07/29 11:24:13;;;;;;;6.85;3.00;;;;;;;26.75;51.24;99946.85;1632625;88;20225;-55
2023/07/29 11:27:22;;;;;;;4.83;2.77;;;;;;;26.71;51.22;99940.97;1630921;86;21802;-55
2023/07/29 11:30:30;;;;;;;4.85;3.20;;;;;;;26.65;51.19;99935.13;1632225;87;21378;-54
2023/07/29 11:33:35;;;;;;;7.75;3.87;;;;;;;26.73;51.29;99940.67;1679424;85;21823;-55
2023/07/29 11:36:42;;;;;;;6.67;3.95;;;;;;;26.68;51.17;99934.53;1686914;85;21413;-56
2023/07/29 11:39:51;;;;;;;7.15;4.10;;;;;;;26.63;51.13;99934.53;1684274;85;21366;-55
2023/07/29 11:42:58;;;;;;;5.40;3.50;;;;;;;26.77;51.30;99922.94;1606753;86;21775;-55
2023/07/29 11:46:04;;;;;;;3.75;2.80;;;;;;;26.82;51.14;99928.52;1595829;88;21295;-55
2023/07/29 11:49:13;;;;;;;3.92;2.70;;;;;;;26.73;50.99;99927.48;1632992;86;21288;-56
2023/07/29 11:52:19;;;;;;;5.72;3.67;;;;;;;26.59;50.82;99931.20;1616688;89;21256;-56
2023/07/29 11:55:26;;;;;;;4.95;3.50;;;;;;;26.45;50.76;99925.37;1582110;89;21251;-56
2023/07/29 11:58:34;;;;;;;5.22;3.85;;;;;;;26.44;50.94;99923.71;1624881;88;21244;-57
2023/07/29 12:01:39;;;;;;;4.40;2.70;;;;;;;26.63;51.14;99924.70;1604013;89;21832;-57
2023/07/29 12:04:46;;;;;;;6.05;2.80;;;;;;;26.78;51.23;99924.64;1624852;88;21586;-57
2023/07/29 12:07:52;;;;;;;4.47;2.50;;;;;;;26.95;51.30;99925.05;1603785;89;21259;-56
2023/07/29 12:10:59;;;;;;;3.77;2.40;;;;;;;27.11;51.31;99931.38;1623270;86;21214;-57
2023/07/29 12:14:04;;;;;;;3.45;2.37;;;;;;;27.17;51.12;99926.81;1600040;88;21260;-56
2023/07/29 12:17:12;;;;;;;3.47;2.22;;;;;;;27.22;51.06;99923.11;1614927;89;21924;-56
2023/07/29 12:20:19;;;;;;;3.92;2.17;;;;;;;27.39;51.07;99922.97;1616353;89;21291;-58
2023/07/29 12:23:26;;;;;;;2.30;1.80;;;;;;;27.51;50.98;99925.39;1601096;89;21409;-56
2023/07/29 12:26:37;;;;;;;2.75;1.90;;;;;;;27.35;50.65;99931.71;1566228;89;21215;-56
2023/07/29 12:29:51;;;;;;;3.08;1.57;;;;;;;27.14;50.46;99933.03;1612450;88;21213;-56
2023/07/29 12:32:57;;;;;;;5.33;1.72;;;;;;;27.09;50.51;99932.22;1596010;90;21243;-56
2023/07/29 12:36:04;;;;;;;2.65;1.82;;;;;;;27.22;50.65;99926.77;1612256;89;21244;-56
2023/07/29 12:39:10;;;;;;;3.52;1.77;;;;;;;27.41;50.81;99919.86;1596415;90;21231;-57
2023/07/29 12:42:17;;;;;;;1.95;1.55;;;;;;;27.61;50.88;99923.28;1612579;89;21805;-56
2023/07/29 12:45:26;;;;;;;2.12;1.60;;;;;;;27.59;50.56;99926.96;1609040;89;21272;-58
2023/07/29 12:48:31;;;;;;;2.47;2.05;;;;;;;27.45;50.33;99927.40;1623151;88;21371;-57
2023/07/29 12:51:37;;;;;;;3.00;1.98;;;;;;;27.37;50.24;99923.83;1618000;88;21258;-57
2023/07/29 12:54:44;;;;;;;4.72;2.10;;;;;;;27.27;50.14;99930.98;1670818;85;21797;-56
2023/07/29 12:57:52;;;;;;;5.78;2.20;;;;;;;27.11;50.14;99928.00;1670358;86;21213;-55
2023/07/29 13:01:00;;;;;;;2.45;1.87;;;;;;;27.15;50.31;99925.41;1670683;86;21238;-54
2023/07/29 13:04:07;;;;;;;3.33;2.15;;;;;;;27.21;50.43;99936.32;1670246;85;21249;-54
2023/07/29 13:07:14;;;;;;;5.25;2.08;;;;;;;27.28;50.47;99932.64;1669667;86;21292;-54
2023/07/29 13:10:19;;;;;;;4.10;1.92;;;;;;;27.32;50.36;99935.70;1653158;86;21237;-55
2023/07/29 13:13:25;;;;;;;2.70;1.95;;;;;;;27.40;50.40;99930.26;1669826;86;21237;-56
2023/07/29 13:16:32;;;;;;;3.55;2.12;;;;;;;27.50;50.34;99932.97;1669632;86;21233;-56
2023/07/29 13:19:39;;;;;;;6.15;2.50;;;;;;;27.38;50.08;99932.55;1670149;85;21280;-58
2023/07/29 13:22:46;;;;;;;3.17;2.00;;;;;;;27.24;49.93;99932.09;1674513;85;21221;-57
2023/07/29 13:25:52;;;;;;;6.95;2.00;;;;;;;27.10;49.94;99930.52;1641467;86;21865;-55
2023/07/29 13:28:57;;;;;;;3.25;2.67;;;;;;;27.10;50.08;99922.68;1674976;85;21770;-56
2023/07/29 13:32:04;;;;;;;4.42;2.33;;;;;;;27.10;50.09;99924.90;1641427;86;21355;-57
2023/07/29 13:35:11;;;;;;;2.30;2.05;;;;;;;27.03;50.05;99922.17;1676595;85;21352;-58
2023/07/29 13:38:19;;;;;;;2.70;2.30;;;;;;;26.95;50.07;99922.80;1648084;85;21280;-56
2023/07/29 13:41:26;;;;;;;5.87;2.60;;;;;;;26.78;50.03;99921.83;1627786;86;21253;-55
2023/07/29 13:44:32;;;;;;;4.12;2.65;;;;;;;26.65;50.08;99916.02;1668166;86;21392;-56
2023/07/29 13:47:38;;;;;;;4.17;2.85;;;;;;;26.65;50.25;99912.66;1667994;86;21886;-56
2023/07/29 13:50:44;;;;;;;3.85;3.30;;;;;;;26.65;50.35;99914.61;1667822;86;21384;-56
2023/07/29 13:53:49;;;;;;;5.47;3.42;;;;;;;26.67;50.54;99926.41;1667760;86;21899;-57
2023/07/29 13:56:55;;;;;;;5.00;3.45;;;;;;;26.69;50.45;99910.92;1668216;86;21387;-58
2023/07/29 14:00:03;;;;;;;5.35;3.27;;;;;;;26.58;50.33;99915.46;1668443;86;21368;-57
2023/07/29 14:03:10;;;;;;;3.15;2.85;;;;;;;26.51;50.42;99911.61;1668511;86;21712;-57
2023/07/29 14:06:17;;;;;;;4.85;3.50;;;;;;;26.56;50.47;99910.73;1668289;86;21313;-55
2023/07/29 14:09:23;;;;;;;6.10;3.52;;;;;;;26.59;50.51;99918.01;1623784;88;21386;-57
2023/07/29 14:12:31;;;;;;;3.17;2.87;;;;;;;26.57;50.46;99914.64;1590767;89;21337;-58
2023/07/29 14:15:38;;;;;;;4.22;2.90;;;;;;;26.56;50.50;99915.76;1626898;85;21354;-56
2023/07/29 14:18:45;;;;;;;4.58;3.02;;;;;;;26.54;50.49;99915.23;1630199;87;21426;-56
2023/07/29 14:21:51;;;;;;;3.77;3.15;;;;;;;26.55;50.49;99916.05;1623584;88;21417;-55
2023/07/29 14:24:57;;;;;;;3.58;2.83;;;;;;;26.54;50.49;99915.23;1590210;89;21267;-57
2023/07/29 14:28:02;;;;;;;3.05;2.75;;;;;;;26.48;50.41;99910.79;1623142;88;21988;-56
2023/07/29 14:31:08;;;;;;;2.98;2.60;;;;;;;26.37;50.30;99910.55;1596591;87;21436;-55
2023/07/29 14:34:15;;;;;;;3.12;2.83;;;;;;;26.35;50.36;99911.42;1610820;87;21243;-55
2023/07/29 14:37:21;;;;;;;2.98;2.10;;;;;;;26.39;50.37;99908.30;1629209;87;21808;-56